sensor_id;sensor_type;location;lat;lon;timestamp;pressure;altitude;pressure_sealevel;temperature;humidity
58821;BME280;70670;52.476;13.334;2023-10-09T00:02:11;101654.56;;;10.36;75.29
58821;BME280;70670;52.476;13.334;2023-10-09T00:04:38;101651.69;;;10.40;75.39
58821;BME280;70670;52.476;13.334;2023-10-09T00:07:07;101658.63;;;10.46;75.80
58821;BME280;70670;52.476;13.334;2023-10-09T00:09:36;101640.38;;;10.33;76.44
58821;BME280;70670;52.476;13.334;2023-10-09T00:12:14;101650.25;;;10.31;76.73
58821;BME280;70670;52.476;13.334;2023-10-09T00:14:41;101656.75;;;10.26;76.93
58821;BME280;70670;52.476;13.334;2023-10-09T00:17:16;101649.66;;;10.23;77.94
58821;BME280;70670;52.476;13.334;2023-10-09T00:19:43;101629.59;;;10.12;78.77
58821;BME280;70670;52.476;13.334;2023-10-09T00:22:09;101631.94;;;9.97;78.79
58821;BME280;70670;52.476;13.334;2023-10-09T00:24:42;101633.69;;;9.98;79.44
58821;BME280;70670;52.476;13.334;2023-10-09T00:27:11;101611.66;;;9.92;79.79
58821;BME280;70670;52.476;13.334;2023-10-09T00:29:41;101620.38;;;9.97;79.38
58821;BME280;70670;52.476;13.334;2023-10-09T00:32:14;101621.22;;;9.97;79.75
58821;BME280;70670;52.476;13.334;2023-10-09T00:34:55;101617.94;;;9.91;81.05
58821;BME280;70670;52.476;13.334;2023-10-09T00:37:24;101611.75;;;9.89;82.10
58821;BME280;70670;52.476;13.334;2023-10-09T00:39:52;101599.41;;;9.86;82.92
58821;BME280;70670;52.476;13.334;2023-10-09T00:42:23;101515.69;;;9.39;83.92
58821;BME280;70670;52.476;13.334;2023-10-09T00:45:01;101561.16;;;9.60;83.99
58821;BME280;70670;52.476;13.334;2023-10-09T00:47:33;101575.06;;;9.70;84.55
58821;BME280;70670;52.476;13.334;2023-10-09T00:50:02;101582.03;;;9.74;85.39
58821;BME280;70670;52.476;13.334;2023-10-09T00:52:37;101569.81;;;9.67;86.17
58821;BME280;70670;52.476;13.334;2023-10-09T00:55:05;101578.53;;;9.72;86.87
58821;BME280;70670;52.476;13.334;2023-10-09T00:57:44;101581.28;;;9.71;86.70
58821;BME280;70670;52.476;13.334;2023-10-09T01:00:22;101568.09;;;9.66;87.15
58821;BME280;70670;52.476;13.334;2023-10-09T01:03:06;101543.66;;;9.52;87.91
58821;BME280;70670;52.476;13.334;2023-10-09T01:06:00;101560.22;;;9.61;88.98
58821;BME280;70670;52.476;13.334;2023-10-09T01:08:40;101560.22;;;9.61;90.33
58821;BME280;70670;52.476;13.334;2023-10-09T01:11:15;101553.31;;;9.56;89.64
58821;BME280;70670;52.476;13.334;2023-10-09T01:13:49;101549.00;;;9.52;89.96
58821;BME280;70670;52.476;13.334;2023-10-09T01:16:16;101541.94;;;9.51;91.21
58821;BME280;70670;52.476;13.334;2023-10-09T01:18:43;101536.69;;;9.48;91.54
58821;BME280;70670;52.476;13.334;2023-10-09T01:21:10;101535.84;;;9.47;91.54
58821;BME280;70670;52.476;13.334;2023-10-09T01:23:44;101512.28;;;9.33;92.04
58821;BME280;70670;52.476;13.334;2023-10-09T01:26:29;101527.25;;;9.38;92.18
58821;BME280;70670;52.476;13.334;2023-10-09T01:29:11;101483.06;;;9.29;92.55
58821;BME280;70670;52.476;13.334;2023-10-09T01:31:44;101472.28;;;9.32;93.18
58821;BME280;70670;52.476;13.334;2023-10-09T01:34:23;101483.75;;;9.34;93.34
58821;BME280;70670;52.476;13.334;2023-10-09T01:37:05;101482.00;;;9.34;93.87
58821;BME280;70670;52.476;13.334;2023-10-09T01:39:38;101398.00;;;8.95;93.33
58821;BME280;70670;52.476;13.334;2023-10-09T01:42:05;101391.81;;;8.94;92.71
58821;BME280;70670;52.476;13.334;2023-10-09T01:44:32;101454.81;;;9.23;92.78
58821;BME280;70670;52.476;13.334;2023-10-09T01:47:05;101447.84;;;9.19;92.71
58821;BME280;70670;52.476;13.334;2023-10-09T01:49:42;101408.00;;;9.13;92.53
58821;BME280;70670;52.476;13.334;2023-10-09T01:52:11;101410.50;;;9.18;92.92
58821;BME280;70670;52.476;13.334;2023-10-09T01:54:42;101336.84;;;8.65;93.04
58821;BME280;70670;52.476;13.334;2023-10-09T01:57:12;101331.91;;;8.54;93.03
58821;BME280;70670;52.476;13.334;2023-10-09T01:59:39;101438.66;;;9.03;93.29
58821;BME280;70670;52.476;13.334;2023-10-09T02:02:22;101342.16;;;8.42;93.66
58821;BME280;70670;52.476;13.334;2023-10-09T02:05:01;101406.44;;;8.84;94.56
58821;BME280;70670;52.476;13.334;2023-10-09T02:07:39;101389.28;;;8.91;94.35
58821;BME280;70670;52.476;13.334;2023-10-09T02:10:21;101398.84;;;8.97;94.97
58821;BME280;70670;52.476;13.334;2023-10-09T02:12:57;101396.28;;;8.94;94.77
58821;BME280;70670;52.476;13.334;2023-10-09T02:15:23;101395.66;;;8.87;94.83
58821;BME280;70670;52.476;13.334;2023-10-09T02:18:09;101408.69;;;8.95;94.95
58821;BME280;70670;52.476;13.334;2023-10-09T02:23:25;101430.25;;;9.14;95.39
58821;BME280;70670;52.476;13.334;2023-10-09T02:25:56;101396.81;;;9.03;95.76
58821;BME280;70670;52.476;13.334;2023-10-09T02:28:23;101397.28;;;9.15;95.53
58821;BME280;70670;52.476;13.334;2023-10-09T02:30:48;101387.50;;;9.14;95.80
58821;BME280;70670;52.476;13.334;2023-10-09T02:33:16;101402.66;;;9.13;96.38
58821;BME280;70670;52.476;13.334;2023-10-09T02:35:46;101401.72;;;9.14;97.18
58821;BME280;70670;52.476;13.334;2023-10-09T02:38:17;101416.84;;;9.15;97.25
58821;BME280;70670;52.476;13.334;2023-10-09T02:40:43;101404.09;;;8.98;97.85
58821;BME280;70670;52.476;13.334;2023-10-09T02:43:34;101425.75;;;9.14;98.98
58821;BME280;70670;52.476;13.334;2023-10-09T02:46:10;101406.03;;;9.18;98.82
58821;BME280;70670;52.476;13.334;2023-10-09T02:48:55;101379.56;;;9.12;98.81
58821;BME280;70670;52.476;13.334;2023-10-09T02:51:23;101375.97;;;9.13;99.66
58821;BME280;70670;52.476;13.334;2023-10-09T02:53:53;101365.66;;;9.04;100.00
58821;BME280;70670;52.476;13.334;2023-10-09T02:56:20;101283.78;;;8.57;100.00
58821;BME280;70670;52.476;13.334;2023-10-09T02:58:51;101357.06;;;8.96;100.00
58821;BME280;70670;52.476;13.334;2023-10-09T03:01:16;101329.66;;;8.91;100.00
58821;BME280;70670;52.476;13.334;2023-10-09T03:03:42;101339.41;;;8.92;100.00
58821;BME280;70670;52.476;13.334;2023-10-09T03:06:15;101343.53;;;9.00;100.00
58821;BME280;70670;52.476;13.334;2023-10-09T03:08:54;101337.53;;;8.94;100.00
58821;BME280;70670;52.476;13.334;2023-10-09T03:11:20;101179.72;;;8.10;100.00
58821;BME280;70670;52.476;13.334;2023-10-09T03:13:46;101326.75;;;8.97;100.00
58821;BME280;70670;52.476;13.334;2023-10-09T03:16:13;101325.03;;;8.96;100.00
58821;BME280;70670;52.476;13.334;2023-10-09T03:18:41;101233.38;;;8.50;100.00
58821;BME280;70670;52.476;13.334;2023-10-09T03:21:08;101316.91;;;8.99;100.00
58821;BME280;70670;52.476;13.334;2023-10-09T03:23:35;101312.44;;;8.99;100.00
58821;BME280;70670;52.476;13.334;2023-10-09T03:26:00;101288.00;;;8.86;100.00
58821;BME280;70670;52.476;13.334;2023-10-09T03:28:26;101296.47;;;8.98;100.00
58821;BME280;70670;52.476;13.334;2023-10-09T03:30:52;101221.63;;;8.55;100.00
58821;BME280;70670;52.476;13.334;2023-10-09T03:33:18;101297.47;;;8.95;100.00
58821;BME280;70670;52.476;13.334;2023-10-09T03:35:44;101287.66;;;8.96;100.00
58821;BME280;70670;52.476;13.334;2023-10-09T03:38:10;101276.44;;;8.86;100.00
58821;BME280;70670;52.476;13.334;2023-10-09T03:40:42;101193.38;;;8.50;100.00
58821;BME280;70670;52.476;13.334;2023-10-09T03:43:09;101245.78;;;8.74;100.00
58821;BME280;70670;52.476;13.334;2023-10-09T03:45:39;101263.19;;;8.84;100.00
58821;BME280;70670;52.476;13.334;2023-10-09T03:48:18;101175.44;;;8.30;100.00
58821;BME280;70670;52.476;13.334;2023-10-09T03:50:51;101241.19;;;8.78;100.00
58821;BME280;70670;52.476;13.334;2023-10-09T03:53:33;101226.19;;;8.75;100.00
58821;BME280;70670;52.476;13.334;2023-10-09T03:56:02;101162.78;;;8.35;100.00
58821;BME280;70670;52.476;13.334;2023-10-09T03:58:41;101226.91;;;8.79;100.00
58821;BME280;70670;52.476;13.334;2023-10-09T04:01:12;101219.72;;;8.81;100.00
58821;BME280;70670;52.476;13.334;2023-10-09T04:03:47;101202.50;;;8.66;100.00
58821;BME280;70670;52.476;13.334;2023-10-09T04:06:12;101214.56;;;8.76;100.00
58821;BME280;70670;52.476;13.334;2023-10-09T04:08:38;101236.56;;;8.83;100.00
58821;BME280;70670;52.476;13.334;2023-10-09T04:11:12;101240.97;;;8.84;100.00
58821;BME280;70670;52.476;13.334;2023-10-09T04:13:45;101239.38;;;8.78;100.00
58821;BME280;70670;52.476;13.334;2023-10-09T04:16:15;101246.22;;;8.85;100.00
58821;BME280;70670;52.476;13.334;2023-10-09T04:19:01;101236.72;;;8.78;100.00
58821;BME280;70670;52.476;13.334;2023-10-09T04:21:37;101250.50;;;8.90;100.00
58821;BME280;70670;52.476;13.334;2023-10-09T04:24:07;101245.28;;;8.86;100.00
58821;BME280;70670;52.476;13.334;2023-10-09T04:26:42;101246.09;;;8.89;100.00
58821;BME280;70670;52.476;13.334;2023-10-09T04:29:11;101247.16;;;8.84;100.00
58821;BME280;70670;52.476;13.334;2023-10-09T04:31:46;101254.00;;;8.92;100.00
58821;BME280;70670;52.476;13.334;2023-10-09T04:34:20;101229.22;;;8.88;100.00
58821;BME280;70670;52.476;13.334;2023-10-09T04:37:03;101223.94;;;8.86;100.00
58821;BME280;70670;52.476;13.334;2023-10-09T04:39:47;101247.81;;;8.91;100.00
58821;BME280;70670;52.476;13.334;2023-10-09T04:42:16;101239.72;;;8.93;100.00
58821;BME280;70670;52.476;13.334;2023-10-09T04:44:50;101245.06;;;8.93;100.00
58821;BME280;70670;52.476;13.334;2023-10-09T04:47:44;101217.88;;;8.83;100.00
58821;BME280;70670;52.476;13.334;2023-10-09T04:50:23;101245.16;;;8.90;100.00
58821;BME280;70670;52.476;13.334;2023-10-09T04:52:55;101232.75;;;8.89;100.00
58821;BME280;70670;52.476;13.334;2023-10-09T04:55:20;101221.34;;;8.85;100.00
58821;BME280;70670;52.476;13.334;2023-10-09T04:57:51;101207.44;;;8.77;100.00
58821;BME280;70670;52.476;13.334;2023-10-09T05:00:26;101231.91;;;8.88;100.00
58821;BME280;70670;52.476;13.334;2023-10-09T05:02:56;101198.25;;;8.84;100.00
58821;BME280;70670;52.476;13.334;2023-10-09T05:05:26;101192.16;;;8.80;100.00
58821;BME280;70670;52.476;13.334;2023-10-09T05:08:08;101123.66;;;8.37;100.00
58821;BME280;70670;52.476;13.334;2023-10-09T05:10:43;101208.97;;;8.82;100.00
58821;BME280;70670;52.476;13.334;2023-10-09T05:13:27;101195.38;;;8.67;100.00
58821;BME280;70670;52.476;13.334;2023-10-09T05:18:51;101204.84;;;8.75;100.00
58821;BME280;70670;52.476;13.334;2023-10-09T05:21:28;101120.59;;;8.23;100.00
58821;BME280;70670;52.476;13.334;2023-10-09T05:23:57;101057.19;;;7.85;100.00
58821;BME280;70670;52.476;13.334;2023-10-09T05:26:44;101200.19;;;8.80;100.00
58821;BME280;70670;52.476;13.334;2023-10-09T05:29:20;101193.25;;;8.75;100.00
58821;BME280;70670;52.476;13.334;2023-10-09T05:32:01;101205.44;;;8.82;100.00
58821;BME280;70670;52.476;13.334;2023-10-09T05:34:40;101206.44;;;8.79;100.00
58821;BME280;70670;52.476;13.334;2023-10-09T05:37:25;101134.25;;;8.38;100.00
58821;BME280;70670;52.476;13.334;2023-10-09T05:39:54;101209.88;;;8.83;100.00
58821;BME280;70670;52.476;13.334;2023-10-09T05:42:24;101204.69;;;8.78;100.00
58821;BME280;70670;52.476;13.334;2023-10-09T05:44:54;101208.66;;;8.68;100.00
58821;BME280;70670;52.476;13.334;2023-10-09T05:47:39;101127.84;;;8.19;100.00
58821;BME280;70670;52.476;13.334;2023-10-09T05:50:05;101202.50;;;8.66;100.00
58821;BME280;70670;52.476;13.334;2023-10-09T05:52:34;101205.06;;;8.69;100.00
58821;BME280;70670;52.476;13.334;2023-10-09T05:55:02;101123.34;;;8.21;100.00
58821;BME280;70670;52.476;13.334;2023-10-09T05:57:47;101198.94;;;8.67;100.00
58821;BME280;70670;52.476;13.334;2023-10-09T06:00:22;101161.47;;;8.47;100.00
58821;BME280;70670;52.476;13.334;2023-10-09T06:03:07;101222.69;;;8.73;100.00
58821;BME280;70670;52.476;13.334;2023-10-09T06:05:48;101191.94;;;8.63;100.00
58821;BME280;70670;52.476;13.334;2023-10-09T06:08:29;101194.63;;;8.63;100.00
58821;BME280;70670;52.476;13.334;2023-10-09T06:11:07;101196.56;;;8.59;100.00
58821;BME280;70670;52.476;13.334;2023-10-09T06:13:55;101207.06;;;8.64;100.00
58821;BME280;70670;52.476;13.334;2023-10-09T06:16:39;101205.19;;;8.66;100.00
58821;BME280;70670;52.476;13.334;2023-10-09T06:19:05;101185.38;;;8.50;100.00
58821;BME280;70670;52.476;13.334;2023-10-09T06:21:34;101196.56;;;8.59;100.00
58821;BME280;70670;52.476;13.334;2023-10-09T06:24:26;101192.31;;;8.54;100.00
58821;BME280;70670;52.476;13.334;2023-10-09T06:26:59;101190.41;;;8.57;100.00
58821;BME280;70670;52.476;13.334;2023-10-09T06:29:25;101193.94;;;8.58;100.00
58821;BME280;70670;52.476;13.334;2023-10-09T06:32:09;101187.66;;;8.59;100.00
58821;BME280;70670;52.476;13.334;2023-10-09T06:34:48;101179.09;;;8.51;100.00
58821;BME280;70670;52.476;13.334;2023-10-09T06:37:20;101173.59;;;8.55;100.00
58821;BME280;70670;52.476;13.334;2023-10-09T06:39:50;101104.03;;;8.14;100.00
58821;BME280;70670;52.476;13.334;2023-10-09T06:42:16;101187.31;;;8.68;100.00
58821;BME280;70670;52.476;13.334;2023-10-09T06:45:08;101190.78;;;8.70;100.00
58821;BME280;70670;52.476;13.334;2023-10-09T06:47:37;101183.50;;;8.75;100.00
58821;BME280;70670;52.476;13.334;2023-10-09T06:50:19;101183.50;;;8.75;100.00
58821;BME280;70670;52.476;13.334;2023-10-09T06:52:52;101166.78;;;8.70;100.00
58821;BME280;70670;52.476;13.334;2023-10-09T06:55:36;101177.88;;;8.81;100.00
58821;BME280;70670;52.476;13.334;2023-10-09T06:58:21;101157.97;;;8.68;100.00
58821;BME280;70670;52.476;13.334;2023-10-09T07:00:54;101096.84;;;8.40;100.00
58821;BME280;70670;52.476;13.334;2023-10-09T07:03:23;101160.69;;;8.89;100.00
58821;BME280;70670;52.476;13.334;2023-10-09T07:06:09;101157.28;;;8.85;100.00
58821;BME280;70670;52.476;13.334;2023-10-09T07:08:56;101162.44;;;8.90;100.00
58821;BME280;70670;52.476;13.334;2023-10-09T07:11:38;101166.03;;;8.89;100.00
58821;BME280;70670;52.476;13.334;2023-10-09T07:14:12;101181.75;;;8.96;100.00
58821;BME280;70670;52.476;13.334;2023-10-09T07:16:57;101170.19;;;8.96;100.00
58821;BME280;70670;52.476;13.334;2023-10-09T07:19:29;101155.25;;;8.92;100.00
58821;BME280;70670;52.476;13.334;2023-10-09T07:22:21;101081.22;;;8.53;100.00
58821;BME280;70670;52.476;13.334;2023-10-09T07:24:50;101171.81;;;9.00;100.00
58821;BME280;70670;52.476;13.334;2023-10-09T07:27:27;101122.91;;;8.77;100.00
58821;BME280;70670;52.476;13.334;2023-10-09T07:30:19;101166.34;;;9.03;100.00
58821;BME280;70670;52.476;13.334;2023-10-09T07:33:05;101171.53;;;9.06;100.00
58821;BME280;70670;52.476;13.334;2023-10-09T07:35:38;101180.38;;;9.08;100.00
58821;BME280;70670;52.476;13.334;2023-10-09T07:40:41;101162.97;;;8.98;100.00
58821;BME280;70670;52.476;13.334;2023-10-09T07:43:24;101174.19;;;9.06;100.00
58821;BME280;70670;52.476;13.334;2023-10-09T07:45:56;101082.63;;;8.61;100.00
58821;BME280;70670;52.476;13.334;2023-10-09T07:48:25;101191.41;;;9.21;100.00
58821;BME280;70670;52.476;13.334;2023-10-09T07:51:13;101181.69;;;9.18;100.00
58821;BME280;70670;52.476;13.334;2023-10-09T07:53:39;101167.16;;;9.25;100.00
58821;BME280;70670;52.476;13.334;2023-10-09T07:56:11;101161.06;;;9.22;100.00
58821;BME280;70670;52.476;13.334;2023-10-09T07:58:40;101186.53;;;9.30;99.97
58821;BME280;70670;52.476;13.334;2023-10-09T08:01:13;101196.09;;;9.36;99.62
58821;BME280;70670;52.476;13.334;2023-10-09T08:03:48;101134.44;;;9.00;98.66
58821;BME280;70670;52.476;13.334;2023-10-09T08:06:24;101197.56;;;9.43;98.72
58821;BME280;70670;52.476;13.334;2023-10-09T08:09:05;101052.94;;;8.49;98.58
58821;BME280;70670;52.476;13.334;2023-10-09T08:11:46;101210.25;;;9.38;97.30
58821;BME280;70670;52.476;13.334;2023-10-09T08:14:13;101138.16;;;8.96;97.60
58821;BME280;70670;52.476;13.334;2023-10-09T08:16:49;101139.66;;;9.03;97.85
58821;BME280;70670;52.476;13.334;2023-10-09T08:19:17;101229.47;;;9.46;97.44
58821;BME280;70670;52.476;13.334;2023-10-09T08:22:00;101225.03;;;9.47;97.44
58821;BME280;70670;52.476;13.334;2023-10-09T08:24:45;101212.03;;;9.38;95.56
58821;BME280;70670;52.476;13.334;2023-10-09T08:30:01;101220.56;;;9.47;96.05
58821;BME280;70670;52.476;13.334;2023-10-09T08:32:54;101219.81;;;9.44;96.08
58821;BME280;70670;52.476;13.334;2023-10-09T08:35:30;101163.00;;;9.18;96.20
58821;BME280;70670;52.476;13.334;2023-10-09T08:37:56;101208.25;;;9.43;96.05
58821;BME280;70670;52.476;13.334;2023-10-09T08:40:32;101225.56;;;9.55;97.12
58821;BME280;70670;52.476;13.334;2023-10-09T08:43:14;101214.06;;;9.53;97.48
58821;BME280;70670;52.476;13.334;2023-10-09T08:45:56;101209.25;;;9.61;98.49
58821;BME280;70670;52.476;13.334;2023-10-09T08:48:27;101218.00;;;9.65;99.02
58821;BME280;70670;52.476;13.334;2023-10-09T08:50:53;101208.19;;;9.65;98.31
58821;BME280;70670;52.476;13.334;2023-10-09T08:53:21;101202.97;;;9.62;97.55
58821;BME280;70670;52.476;13.334;2023-10-09T08:55:48;101208.31;;;9.62;96.62
58821;BME280;70670;52.476;13.334;2023-10-09T08:58:16;101116.00;;;9.14;96.80
58821;BME280;70670;52.476;13.334;2023-10-09T09:00:45;101197.56;;;9.64;96.70
58821;BME280;70670;52.476;13.334;2023-10-09T09:03:14;101131.31;;;9.31;97.32
58821;BME280;70670;52.476;13.334;2023-10-09T09:05:56;101199.25;;;9.66;96.61
58821;BME280;70670;52.476;13.334;2023-10-09T09:08:23;101197.38;;;9.68;96.66
58821;BME280;70670;52.476;13.334;2023-10-09T09:14:20;101199.50;;;9.60;95.35
58821;BME280;70670;52.476;13.334;2023-10-09T09:16:40;101198.03;;;9.53;95.52
58821;BME280;70670;52.476;13.334;2023-10-09T09:19:09;101186.34;;;9.55;95.74
58821;BME280;70670;52.476;13.334;2023-10-09T09:21:42;101190.09;;;9.51;95.77
58821;BME280;70670;52.476;13.334;2023-10-09T09:24:11;101192.69;;;9.53;96.00
58821;BME280;70670;52.476;13.334;2023-10-09T09:26:54;101177.59;;;9.52;96.29
58821;BME280;70670;52.476;13.334;2023-10-09T09:32:04;101186.34;;;9.55;95.18
58821;BME280;70670;52.476;13.334;2023-10-09T09:34:51;101185.22;;;9.61;95.69
58821;BME280;70670;52.476;13.334;2023-10-09T09:37:21;101203.31;;;9.75;95.93
58821;BME280;70670;52.476;13.334;2023-10-09T09:39:47;101181.75;;;9.59;94.16
58821;BME280;70670;52.476;13.334;2023-10-09T09:42:17;101101.59;;;9.18;94.25
58821;BME280;70670;52.476;13.334;2023-10-09T09:44:44;101199.09;;;9.69;95.05
58821;BME280;70670;52.476;13.334;2023-10-09T09:47:15;101197.38;;;9.68;94.89
58821;BME280;70670;52.476;13.334;2023-10-09T09:49:56;101204.66;;;9.65;95.34
58821;BME280;70670;52.476;13.334;2023-10-09T09:52:37;101160.38;;;9.39;95.02
58821;BME280;70670;52.476;13.334;2023-10-09T09:55:07;101210.59;;;9.71;95.74
58821;BME280;70670;52.476;13.334;2023-10-09T09:57:44;101213.28;;;9.71;94.79
58821;BME280;70670;52.476;13.334;2023-10-09T10:00:12;101208.94;;;9.69;94.55
58821;BME280;70670;52.476;13.334;2023-10-09T10:02:57;101211.28;;;9.76;95.09
58821;BME280;70670;52.476;13.334;2023-10-09T10:05:25;101208.72;;;9.73;95.06
58821;BME280;70670;52.476;13.334;2023-10-09T10:07:58;101208.47;;;9.79;95.54
58821;BME280;70670;52.476;13.334;2023-10-09T10:10:37;101138.06;;;9.40;95.33
58821;BME280;70670;52.476;13.334;2023-10-09T10:13:07;101195.09;;;9.79;95.19
58821;BME280;70670;52.476;13.334;2023-10-09T10:18:23;101205.66;;;9.82;94.75
58821;BME280;70670;52.476;13.334;2023-10-09T10:23:32;101200.56;;;9.76;94.40
58821;BME280;70670;52.476;13.334;2023-10-09T10:26:32;101196.31;;;9.72;94.45
58821;BME280;70670;52.476;13.334;2023-10-09T10:29:15;101191.91;;;9.71;93.93
58821;BME280;70670;52.476;13.334;2023-10-09T10:32:01;101202.47;;;9.74;94.72
58821;BME280;70670;52.476;13.334;2023-10-09T10:34:52;101202.59;;;9.71;95.09
58821;BME280;70670;52.476;13.334;2023-10-09T10:37:38;101204.19;;;9.75;95.14
58821;BME280;70670;52.476;13.334;2023-10-09T10:40:27;101183.88;;;9.71;95.18
58821;BME280;70670;52.476;13.334;2023-10-09T10:43:15;101184.41;;;9.79;95.09
58821;BME280;70670;52.476;13.334;2023-10-09T10:46:04;101193.59;;;9.93;95.11
58821;BME280;70670;52.476;13.334;2023-10-09T10:48:36;101194.97;;;9.82;93.24
58821;BME280;70670;52.476;13.334;2023-10-09T10:51:05;101168.38;;;9.79;94.34
58821;BME280;70670;52.476;13.334;2023-10-09T10:53:31;101174.44;;;9.83;93.74
58821;BME280;70670;52.476;13.334;2023-10-09T10:56:13;101124.91;;;9.55;92.98
58821;BME280;70670;52.476;13.334;2023-10-09T10:58:43;101189.22;;;9.92;93.04
58821;BME280;70670;52.476;13.334;2023-10-09T11:01:37;101164.50;;;9.87;92.73
58821;BME280;70670;52.476;13.334;2023-10-09T11:04:26;101190.53;;;10.02;92.50
58821;BME280;70670;52.476;13.334;2023-10-09T11:06:58;101170.22;;;9.98;92.59
58821;BME280;70670;52.476;13.334;2023-10-09T11:09:57;101134.56;;;9.78;92.06
58821;BME280;70670;52.476;13.334;2023-10-09T11:12:28;101182.13;;;10.09;92.61
58821;BME280;70670;52.476;13.334;2023-10-09T11:15:13;101137.06;;;9.81;91.16
58821;BME280;70670;52.476;13.334;2023-10-09T11:18:05;101174.19;;;10.08;92.13
58821;BME280;70670;52.476;13.334;2023-10-09T11:20:35;101182.09;;;10.11;92.79
58821;BME280;70670;52.476;13.334;2023-10-09T11:23:02;101171.31;;;10.13;92.75
58821;BME280;70670;52.476;13.334;2023-10-09T11:25:38;101163.06;;;10.17;92.26
58821;BME280;70670;52.476;13.334;2023-10-09T11:31:11;101153.81;;;10.24;90.79
58821;BME280;70670;52.476;13.334;2023-10-09T11:33:51;101136.63;;;10.11;90.63
58821;BME280;70670;52.476;13.334;2023-10-09T11:36:21;101145.16;;;10.19;90.99
58821;BME280;70670;52.476;13.334;2023-10-09T11:38:57;101145.88;;;10.23;91.41
58821;BME280;70670;52.476;13.334;2023-10-09T11:41:41;101153.81;;;10.24;92.11
58821;BME280;70670;52.476;13.334;2023-10-09T11:44:07;101139.81;;;10.19;91.38
58821;BME280;70670;52.476;13.334;2023-10-09T11:46:59;101155.19;;;10.34;91.62
58821;BME280;70670;52.476;13.334;2023-10-09T11:49:56;101150.69;;;10.35;90.54
58821;BME280;70670;52.476;13.334;2023-10-09T11:52:54;101137.91;;;10.42;91.15
58821;BME280;70670;52.476;13.334;2023-10-09T11:55:22;101132.03;;;10.33;90.70
58821;BME280;70670;52.476;13.334;2023-10-09T11:57:51;101053.81;;;9.91;91.96
58821;BME280;70670;52.476;13.334;2023-10-09T12:00:17;101128.09;;;10.41;91.96
58821;BME280;70670;52.476;13.334;2023-10-09T12:02:55;101125.53;;;10.39;91.26
58821;BME280;70670;52.476;13.334;2023-10-09T12:05:21;101114.00;;;10.37;90.89
58821;BME280;70670;52.476;13.334;2023-10-09T12:07:49;101121.16;;;10.37;90.13
58821;BME280;70670;52.476;13.334;2023-10-09T12:10:23;101123.84;;;10.37;91.29
58821;BME280;70670;52.476;13.334;2023-10-09T12:12:52;101121.97;;;10.39;91.19
58821;BME280;70670;52.476;13.334;2023-10-09T12:15:17;101127.25;;;10.40;91.87
58821;BME280;70670;52.476;13.334;2023-10-09T12:17:45;101130.59;;;10.26;90.46
58821;BME280;70670;52.476;13.334;2023-10-09T12:20:16;101132.03;;;10.33;91.30
58821;BME280;70670;52.476;13.334;2023-10-09T12:23:01;101054.59;;;9.93;91.16
58821;BME280;70670;52.476;13.334;2023-10-09T12:25:32;101138.47;;;10.29;90.70
58821;BME280;70670;52.476;13.334;2023-10-09T12:27:59;101125.47;;;10.20;91.15
58821;BME280;70670;52.476;13.334;2023-10-09T12:30:30;101126.69;;;10.13;91.31
58821;BME280;70670;52.476;13.334;2023-10-09T12:32:57;101066.94;;;9.76;92.00
58821;BME280;70670;52.476;13.334;2023-10-09T12:35:24;101126.56;;;10.16;92.40
58821;BME280;70670;52.476;13.334;2023-10-09T12:37:53;101130.97;;;10.17;92.71
58821;BME280;70670;52.476;13.334;2023-10-09T12:40:22;101039.78;;;9.67;92.52
58821;BME280;70670;52.476;13.334;2023-10-09T12:42:54;101111.00;;;10.05;93.52
58821;BME280;70670;52.476;13.334;2023-10-09T12:45:25;101121.56;;;10.08;93.77
58821;BME280;70670;52.476;13.334;2023-10-09T12:47:58;101054.03;;;9.86;93.14
58821;BME280;70670;52.476;13.334;2023-10-09T12:50:28;101125.72;;;10.16;93.62
58821;BME280;70670;52.476;13.334;2023-10-09T12:52:57;101111.22;;;10.01;94.05
58821;BME280;70670;52.476;13.334;2023-10-09T12:55:39;101124.34;;;10.07;94.38
58821;BME280;70670;52.476;13.334;2023-10-09T12:58:09;101123.53;;;10.05;94.83
58821;BME280;70670;52.476;13.334;2023-10-09T13:00:35;101125.47;;;10.01;95.69
58821;BME280;70670;52.476;13.334;2023-10-09T13:03:04;101119.25;;;10.01;95.62
58821;BME280;70670;52.476;13.334;2023-10-09T13:05:39;101116.31;;;10.07;95.97
58821;BME280;70670;52.476;13.334;2023-10-09T13:08:11;101044.41;;;9.63;96.22
58821;BME280;70670;52.476;13.334;2023-10-09T13:10:37;101110.03;;;10.08;95.57
58821;BME280;70670;52.476;13.334;2023-10-09T13:13:03;101124.94;;;10.14;95.92
58821;BME280;70670;52.476;13.334;2023-10-09T13:15:31;101119.50;;;10.15;96.36
58821;BME280;70670;52.476;13.334;2023-10-09T13:18:08;101031.69;;;9.68;95.48
58821;BME280;70670;52.476;13.334;2023-10-09T13:20:33;101119.50;;;10.15;95.75
58821;BME280;70670;52.476;13.334;2023-10-09T13:23:00;101110.97;;;10.07;95.54
58821;BME280;70670;52.476;13.334;2023-10-09T13:25:27;101039.91;;;9.64;95.79
58821;BME280;70670;52.476;13.334;2023-10-09T13:28:03;101121.09;;;10.19;96.12
58821;BME280;70670;52.476;13.334;2023-10-09T13:30:29;101130.84;;;10.20;95.31
58821;BME280;70670;52.476;13.334;2023-10-09T13:32:54;101110.59;;;10.15;94.74
58821;BME280;70670;52.476;13.334;2023-10-09T13:35:21;101140.66;;;10.20;95.19
58821;BME280;70670;52.476;13.334;2023-10-09T13:38:05;101140.59;;;10.21;94.92
58821;BME280;70670;52.476;13.334;2023-10-09T13:40:35;101067.06;;;9.73;94.69
58821;BME280;70670;52.476;13.334;2023-10-09T13:43:02;101145.63;;;10.29;95.00
58821;BME280;70670;52.476;13.334;2023-10-09T13:45:28;101075.97;;;9.93;94.34
58821;BME280;70670;52.476;13.334;2023-10-09T13:47:55;101128.84;;;10.25;93.62